sensor_id;sensor_type;location;lat;lon;timestamp;temperature;humidity
26304;DHT22;70693;48.680;8.890;2023-09-07T00:01:25;21.90;99.90
26304;DHT22;70693;48.680;8.890;2023-09-07T00:03:51;21.90;99.90
26304;DHT22;70693;48.680;8.890;2023-09-07T00:06:17;21.90;99.90
26304;DHT22;70693;48.680;8.890;2023-09-07T00:08:43;21.90;99.90
26304;DHT22;70693;48.680;8.890;2023-09-07T00:11:09;21.80;99.90
26304;DHT22;70693;48.680;8.890;2023-09-07T00:13:36;21.90;99.90
26304;DHT22;70693;48.680;8.890;2023-09-07T00:16:03;21.80;99.90
26304;DHT22;70693;48.680;8.890;2023-09-07T00:18:32;21.90;99.90
26304;DHT22;70693;48.680;8.890;2023-09-07T00:20:59;21.90;99.90
26304;DHT22;70693;48.680;8.890;2023-09-07T00:23:25;21.90;99.90
26304;DHT22;70693;48.680;8.890;2023-09-07T00:25:51;21.80;99.90
26304;DHT22;70693;48.680;8.890;2023-09-07T00:28:16;21.80;99.90
26304;DHT22;70693;48.680;8.890;2023-09-07T00:30:42;21.80;99.90
26304;DHT22;70693;48.680;8.890;2023-09-07T00:33:08;21.80;99.90
26304;DHT22;70693;48.680;8.890;2023-09-07T00:35:34;21.80;99.90
26304;DHT22;70693;48.680;8.890;2023-09-07T00:38:00;21.80;99.90
26304;DHT22;70693;48.680;8.890;2023-09-07T00:40:26;21.80;99.90
26304;DHT22;70693;48.680;8.890;2023-09-07T00:42:53;21.80;99.90
26304;DHT22;70693;48.680;8.890;2023-09-07T00:45:18;21.80;99.90
26304;DHT22;70693;48.680;8.890;2023-09-07T00:47:44;21.80;99.90
26304;DHT22;70693;48.680;8.890;2023-09-07T00:50:10;21.80;99.90
26304;DHT22;70693;48.680;8.890;2023-09-07T00:52:42;21.80;99.90
26304;DHT22;70693;48.680;8.890;2023-09-07T00:55:09;21.80;99.90
26304;DHT22;70693;48.680;8.890;2023-09-07T00:57:35;21.80;99.90
26304;DHT22;70693;48.680;8.890;2023-09-07T01:00:03;21.80;99.90
26304;DHT22;70693;48.680;8.890;2023-09-07T01:02:29;21.80;99.90
26304;DHT22;70693;48.680;8.890;2023-09-07T01:04:56;21.80;99.90
26304;DHT22;70693;48.680;8.890;2023-09-07T01:07:26;21.80;99.90
26304;DHT22;70693;48.680;8.890;2023-09-07T01:09:57;21.80;99.90
26304;DHT22;70693;48.680;8.890;2023-09-07T01:12:24;21.80;99.90
26304;DHT22;70693;48.680;8.890;2023-09-07T01:14:49;21.80;99.90
26304;DHT22;70693;48.680;8.890;2023-09-07T01:17:15;21.80;99.90
26304;DHT22;70693;48.680;8.890;2023-09-07T01:19:41;21.80;99.90
26304;DHT22;70693;48.680;8.890;2023-09-07T01:22:10;21.80;99.90
26304;DHT22;70693;48.680;8.890;2023-09-07T01:24:38;21.80;99.90
26304;DHT22;70693;48.680;8.890;2023-09-07T01:27:05;21.80;99.90
26304;DHT22;70693;48.680;8.890;2023-09-07T01:29:31;21.80;99.90
26304;DHT22;70693;48.680;8.890;2023-09-07T01:31:57;21.80;99.90
26304;DHT22;70693;48.680;8.890;2023-09-07T01:34:23;21.80;99.90
26304;DHT22;70693;48.680;8.890;2023-09-07T01:36:49;21.80;99.90
26304;DHT22;70693;48.680;8.890;2023-09-07T01:39:15;21.70;99.90
26304;DHT22;70693;48.680;8.890;2023-09-07T01:41:42;21.70;99.90
26304;DHT22;70693;48.680;8.890;2023-09-07T01:44:08;21.70;99.90
26304;DHT22;70693;48.680;8.890;2023-09-07T01:46:34;21.70;99.90
26304;DHT22;70693;48.680;8.890;2023-09-07T01:49:01;21.70;99.90
26304;DHT22;70693;48.680;8.890;2023-09-07T01:51:27;21.70;99.90
26304;DHT22;70693;48.680;8.890;2023-09-07T01:53:53;21.70;99.90
26304;DHT22;70693;48.680;8.890;2023-09-07T01:56:19;21.70;99.90
26304;DHT22;70693;48.680;8.890;2023-09-07T01:58:45;21.70;99.90
26304;DHT22;70693;48.680;8.890;2023-09-07T02:01:24;21.70;99.90
26304;DHT22;70693;48.680;8.890;2023-09-07T02:03:50;21.70;99.90
26304;DHT22;70693;48.680;8.890;2023-09-07T02:06:16;21.70;99.90
26304;DHT22;70693;48.680;8.890;2023-09-07T02:08:42;21.70;99.90
26304;DHT22;70693;48.680;8.890;2023-09-07T02:11:07;21.70;99.90
26304;DHT22;70693;48.680;8.890;2023-09-07T02:13:33;21.70;99.90
26304;DHT22;70693;48.680;8.890;2023-09-07T02:16:03;21.70;99.90
26304;DHT22;70693;48.680;8.890;2023-09-07T02:18:29;21.60;99.90
26304;DHT22;70693;48.680;8.890;2023-09-07T02:21:00;21.70;99.90
26304;DHT22;70693;48.680;8.890;2023-09-07T02:23:25;21.60;99.90
26304;DHT22;70693;48.680;8.890;2023-09-07T02:25:51;21.60;99.90
26304;DHT22;70693;48.680;8.890;2023-09-07T02:28:17;21.60;99.90
26304;DHT22;70693;48.680;8.890;2023-09-07T02:30:42;21.60;99.90
26304;DHT22;70693;48.680;8.890;2023-09-07T02:33:08;21.60;99.90
26304;DHT22;70693;48.680;8.890;2023-09-07T02:35:37;21.60;99.90
26304;DHT22;70693;48.680;8.890;2023-09-07T02:38:02;21.60;99.90
26304;DHT22;70693;48.680;8.890;2023-09-07T02:40:28;21.60;99.90
26304;DHT22;70693;48.680;8.890;2023-09-07T02:42:54;21.60;99.90
26304;DHT22;70693;48.680;8.890;2023-09-07T02:45:19;21.60;99.90
26304;DHT22;70693;48.680;8.890;2023-09-07T02:47:45;21.60;99.90
26304;DHT22;70693;48.680;8.890;2023-09-07T02:50:12;21.60;99.90
26304;DHT22;70693;48.680;8.890;2023-09-07T02:52:39;21.60;99.90
26304;DHT22;70693;48.680;8.890;2023-09-07T02:55:05;21.60;99.90
26304;DHT22;70693;48.680;8.890;2023-09-07T02:57:32;21.60;99.90
26304;DHT22;70693;48.680;8.890;2023-09-07T02:59:57;21.60;99.90
26304;DHT22;70693;48.680;8.890;2023-09-07T03:02:23;21.60;99.90
26304;DHT22;70693;48.680;8.890;2023-09-07T03:04:53;21.60;99.90
26304;DHT22;70693;48.680;8.890;2023-09-07T03:07:20;21.60;99.90
26304;DHT22;70693;48.680;8.890;2023-09-07T03:09:45;21.60;99.90
26304;DHT22;70693;48.680;8.890;2023-09-07T03:12:11;21.60;99.90
26304;DHT22;70693;48.680;8.890;2023-09-07T03:14:37;21.60;99.90
26304;DHT22;70693;48.680;8.890;2023-09-07T03:17:02;21.60;99.90
26304;DHT22;70693;48.680;8.890;2023-09-07T03:19:28;21.50;99.90
26304;DHT22;70693;48.680;8.890;2023-09-07T03:21:54;21.50;99.90
26304;DHT22;70693;48.680;8.890;2023-09-07T03:24:20;21.60;99.90
26304;DHT22;70693;48.680;8.890;2023-09-07T03:26:46;21.50;99.90
26304;DHT22;70693;48.680;8.890;2023-09-07T03:29:11;21.50;99.90
26304;DHT22;70693;48.680;8.890;2023-09-07T03:31:37;21.50;99.90
26304;DHT22;70693;48.680;8.890;2023-09-07T03:34:03;21.50;99.90
26304;DHT22;70693;48.680;8.890;2023-09-07T03:36:28;21.50;99.90
26304;DHT22;70693;48.680;8.890;2023-09-07T03:38:54;21.50;99.90
26304;DHT22;70693;48.680;8.890;2023-09-07T03:41:19;21.50;99.90
26304;DHT22;70693;48.680;8.890;2023-09-07T03:43:45;21.50;99.90
26304;DHT22;70693;48.680;8.890;2023-09-07T03:46:11;21.50;99.90
26304;DHT22;70693;48.680;8.890;2023-09-07T03:48:36;21.50;99.90
26304;DHT22;70693;48.680;8.890;2023-09-07T03:51:06;21.50;99.90
26304;DHT22;70693;48.680;8.890;2023-09-07T03:53:31;21.50;99.90
26304;DHT22;70693;48.680;8.890;2023-09-07T03:55:57;21.50;99.90
26304;DHT22;70693;48.680;8.890;2023-09-07T03:58:23;21.50;99.90
26304;DHT22;70693;48.680;8.890;2023-09-07T04:00:49;21.50;99.90
26304;DHT22;70693;48.680;8.890;2023-09-07T04:03:14;21.50;99.90
26304;DHT22;70693;48.680;8.890;2023-09-07T04:05:40;21.50;99.90
26304;DHT22;70693;48.680;8.890;2023-09-07T04:08:06;21.50;99.90
26304;DHT22;70693;48.680;8.890;2023-09-07T04:10:32;21.40;99.90
26304;DHT22;70693;48.680;8.890;2023-09-07T04:12:58;21.40;99.90
26304;DHT22;70693;48.680;8.890;2023-09-07T04:15:24;21.40;99.90
26304;DHT22;70693;48.680;8.890;2023-09-07T04:17:51;21.50;99.90
26304;DHT22;70693;48.680;8.890;2023-09-07T04:20:16;21.40;99.90
26304;DHT22;70693;48.680;8.890;2023-09-07T04:22:42;21.40;99.90
26304;DHT22;70693;48.680;8.890;2023-09-07T04:25:08;21.40;99.90
26304;DHT22;70693;48.680;8.890;2023-09-07T04:27:34;21.40;99.90
26304;DHT22;70693;48.680;8.890;2023-09-07T04:29:59;21.40;99.90
26304;DHT22;70693;48.680;8.890;2023-09-07T04:32:25;21.40;99.90
26304;DHT22;70693;48.680;8.890;2023-09-07T04:34:55;21.40;99.90
26304;DHT22;70693;48.680;8.890;2023-09-07T04:37:22;21.40;99.90
26304;DHT22;70693;48.680;8.890;2023-09-07T04:39:51;21.40;99.90
26304;DHT22;70693;48.680;8.890;2023-09-07T04:42:20;21.40;99.90
26304;DHT22;70693;48.680;8.890;2023-09-07T04:44:46;21.40;99.90
26304;DHT22;70693;48.680;8.890;2023-09-07T04:47:13;21.40;99.90
26304;DHT22;70693;48.680;8.890;2023-09-07T04:49:39;21.40;99.90
26304;DHT22;70693;48.680;8.890;2023-09-07T04:52:05;21.40;99.90
26304;DHT22;70693;48.680;8.890;2023-09-07T04:54:30;21.40;99.90
26304;DHT22;70693;48.680;8.890;2023-09-07T04:56:56;21.40;99.90
26304;DHT22;70693;48.680;8.890;2023-09-07T04:59:21;21.40;99.90
26304;DHT22;70693;48.680;8.890;2023-09-07T05:01:47;21.40;99.90
26304;DHT22;70693;48.680;8.890;2023-09-07T05:04:13;21.30;99.90
26304;DHT22;70693;48.680;8.890;2023-09-07T05:06:38;21.30;99.90
26304;DHT22;70693;48.680;8.890;2023-09-07T05:09:05;21.30;99.90
26304;DHT22;70693;48.680;8.890;2023-09-07T05:11:31;21.30;99.90
26304;DHT22;70693;48.680;8.890;2023-09-07T05:14:00;21.30;99.90
26304;DHT22;70693;48.680;8.890;2023-09-07T05:16:26;21.30;99.90
26304;DHT22;70693;48.680;8.890;2023-09-07T05:18:52;21.30;99.90
26304;DHT22;70693;48.680;8.890;2023-09-07T05:21:17;21.30;99.90
26304;DHT22;70693;48.680;8.890;2023-09-07T05:23:43;21.30;99.90
26304;DHT22;70693;48.680;8.890;2023-09-07T05:26:09;21.30;99.90
26304;DHT22;70693;48.680;8.890;2023-09-07T05:28:35;21.30;99.90
26304;DHT22;70693;48.680;8.890;2023-09-07T05:31:00;21.30;99.90
26304;DHT22;70693;48.680;8.890;2023-09-07T05:33:26;21.30;99.90
26304;DHT22;70693;48.680;8.890;2023-09-07T05:35:52;21.30;99.90
26304;DHT22;70693;48.680;8.890;2023-09-07T05:38:18;21.30;99.90
26304;DHT22;70693;48.680;8.890;2023-09-07T05:40:46;21.30;99.90
26304;DHT22;70693;48.680;8.890;2023-09-07T05:43:15;21.30;99.90
26304;DHT22;70693;48.680;8.890;2023-09-07T05:45:41;21.30;99.90
26304;DHT22;70693;48.680;8.890;2023-09-07T05:48:08;21.30;99.90
26304;DHT22;70693;48.680;8.890;2023-09-07T05:50:36;21.30;99.90
26304;DHT22;70693;48.680;8.890;2023-09-07T05:53:02;21.30;99.90
26304;DHT22;70693;48.680;8.890;2023-09-07T05:55:28;21.30;99.90
26304;DHT22;70693;48.680;8.890;2023-09-07T05:57:55;21.30;99.90
26304;DHT22;70693;48.680;8.890;2023-09-07T06:00:21;21.30;99.90
26304;DHT22;70693;48.680;8.890;2023-09-07T06:02:47;21.30;99.90
26304;DHT22;70693;48.680;8.890;2023-09-07T06:05:13;21.30;99.90
26304;DHT22;70693;48.680;8.890;2023-09-07T06:07:39;21.30;99.90
26304;DHT22;70693;48.680;8.890;2023-09-07T06:10:05;21.30;99.90
26304;DHT22;70693;48.680;8.890;2023-09-07T06:12:33;21.30;99.90
26304;DHT22;70693;48.680;8.890;2023-09-07T06:15:00;21.30;99.90
26304;DHT22;70693;48.680;8.890;2023-09-07T06:17:27;21.30;99.90
26304;DHT22;70693;48.680;8.890;2023-09-07T06:19:53;21.30;99.90
26304;DHT22;70693;48.680;8.890;2023-09-07T06:22:19;21.30;99.90
26304;DHT22;70693;48.680;8.890;2023-09-07T06:24:44;21.30;99.90
26304;DHT22;70693;48.680;8.890;2023-09-07T06:27:10;21.30;99.90
26304;DHT22;70693;48.680;8.890;2023-09-07T06:29:35;21.30;99.90
26304;DHT22;70693;48.680;8.890;2023-09-07T06:32:01;21.30;99.90
26304;DHT22;70693;48.680;8.890;2023-09-07T06:34:27;21.30;99.90
26304;DHT22;70693;48.680;8.890;2023-09-07T06:36:52;21.30;99.90
26304;DHT22;70693;48.680;8.890;2023-09-07T06:39:18;21.30;99.90
26304;DHT22;70693;48.680;8.890;2023-09-07T06:41:45;21.30;99.90
26304;DHT22;70693;48.680;8.890;2023-09-07T06:44:11;21.30;99.90
26304;DHT22;70693;48.680;8.890;2023-09-07T06:46:37;21.40;99.90
26304;DHT22;70693;48.680;8.890;2023-09-07T06:49:02;21.40;99.90
26304;DHT22;70693;48.680;8.890;2023-09-07T06:51:30;21.40;99.90
26304;DHT22;70693;48.680;8.890;2023-09-07T06:53:56;21.40;99.90
26304;DHT22;70693;48.680;8.890;2023-09-07T06:56:22;21.30;99.90
26304;DHT22;70693;48.680;8.890;2023-09-07T06:58:47;21.40;99.90
26304;DHT22;70693;48.680;8.890;2023-09-07T07:01:13;21.40;99.90
26304;DHT22;70693;48.680;8.890;2023-09-07T07:03:39;21.40;99.90
26304;DHT22;70693;48.680;8.890;2023-09-07T07:06:04;21.40;99.90
26304;DHT22;70693;48.680;8.890;2023-09-07T07:08:30;21.40;99.90
26304;DHT22;70693;48.680;8.890;2023-09-07T07:10:56;21.40;99.90
26304;DHT22;70693;48.680;8.890;2023-09-07T07:13:21;21.40;99.90
26304;DHT22;70693;48.680;8.890;2023-09-07T07:15:47;21.40;99.90
26304;DHT22;70693;48.680;8.890;2023-09-07T07:18:12;21.40;99.90
26304;DHT22;70693;48.680;8.890;2023-09-07T07:20:39;21.40;99.90
26304;DHT22;70693;48.680;8.890;2023-09-07T07:23:05;21.50;99.90
26304;DHT22;70693;48.680;8.890;2023-09-07T07:25:34;21.50;99.90
26304;DHT22;70693;48.680;8.890;2023-09-07T07:28:03;21.40;99.90
26304;DHT22;70693;48.680;8.890;2023-09-07T07:30:32;21.50;99.90
26304;DHT22;70693;48.680;8.890;2023-09-07T07:32:57;21.50;99.90
26304;DHT22;70693;48.680;8.890;2023-09-07T07:35:24;21.50;99.90
26304;DHT22;70693;48.680;8.890;2023-09-07T07:37:50;21.50;99.90
26304;DHT22;70693;48.680;8.890;2023-09-07T07:40:16;21.50;99.90
26304;DHT22;70693;48.680;8.890;2023-09-07T07:42:43;21.50;99.90
26304;DHT22;70693;48.680;8.890;2023-09-07T07:45:09;21.50;99.90
26304;DHT22;70693;48.680;8.890;2023-09-07T07:47:35;21.50;99.90
26304;DHT22;70693;48.680;8.890;2023-09-07T07:50:00;21.50;99.90
26304;DHT22;70693;48.680;8.890;2023-09-07T07:52:26;21.50;99.90
26304;DHT22;70693;48.680;8.890;2023-09-07T07:54:53;21.50;99.90
26304;DHT22;70693;48.680;8.890;2023-09-07T07:57:18;21.50;99.90
26304;DHT22;70693;48.680;8.890;2023-09-07T07:59:44;21.50;99.90
26304;DHT22;70693;48.680;8.890;2023-09-07T08:02:10;21.50;99.90
26304;DHT22;70693;48.680;8.890;2023-09-07T08:04:35;21.50;99.90
26304;DHT22;70693;48.680;8.890;2023-09-07T08:07:01;21.50;99.90
26304;DHT22;70693;48.680;8.890;2023-09-07T08:09:30;21.60;99.90
26304;DHT22;70693;48.680;8.890;2023-09-07T08:11:56;21.50;99.90
26304;DHT22;70693;48.680;8.890;2023-09-07T08:14:23;21.50;99.90
26304;DHT22;70693;48.680;8.890;2023-09-07T08:16:49;21.50;99.90
26304;DHT22;70693;48.680;8.890;2023-09-07T08:19:15;21.60;99.90
26304;DHT22;70693;48.680;8.890;2023-09-07T08:21:40;21.60;99.90
26304;DHT22;70693;48.680;8.890;2023-09-07T08:24:08;21.60;99.90
26304;DHT22;70693;48.680;8.890;2023-09-07T08:26:35;21.60;99.90
26304;DHT22;70693;48.680;8.890;2023-09-07T08:29:00;21.60;99.90
26304;DHT22;70693;48.680;8.890;2023-09-07T08:31:34;21.60;99.90
26304;DHT22;70693;48.680;8.890;2023-09-07T08:34:05;21.60;99.90
26304;DHT22;70693;48.680;8.890;2023-09-07T08:36:31;21.60;99.90
26304;DHT22;70693;48.680;8.890;2023-09-07T08:39:00;21.60;99.90
26304;DHT22;70693;48.680;8.890;2023-09-07T08:41:37;21.70;99.90
26304;DHT22;70693;48.680;8.890;2023-09-07T08:44:08;21.80;99.90
26304;DHT22;70693;48.680;8.890;2023-09-07T08:46:35;21.70;99.90
26304;DHT22;70693;48.680;8.890;2023-09-07T08:49:02;21.80;99.90
26304;DHT22;70693;48.680;8.890;2023-09-07T08:51:28;21.70;99.90
26304;DHT22;70693;48.680;8.890;2023-09-07T08:53:54;21.70;99.90
26304;DHT22;70693;48.680;8.890;2023-09-07T08:56:21;21.70;99.90
26304;DHT22;70693;48.680;8.890;2023-09-07T08:58:47;21.80;99.90
26304;DHT22;70693;48.680;8.890;2023-09-07T09:01:16;21.80;99.90
26304;DHT22;70693;48.680;8.890;2023-09-07T09:03:43;21.80;99.90
26304;DHT22;70693;48.680;8.890;2023-09-07T09:06:10;21.80;99.90
26304;DHT22;70693;48.680;8.890;2023-09-07T09:08:46;21.80;99.90
26304;DHT22;70693;48.680;8.890;2023-09-07T09:11:18;21.80;99.90
26304;DHT22;70693;48.680;8.890;2023-09-07T09:13:45;21.80;99.90
26304;DHT22;70693;48.680;8.890;2023-09-07T09:16:11;21.80;99.90
26304;DHT22;70693;48.680;8.890;2023-09-07T09:18:38;21.80;99.90
26304;DHT22;70693;48.680;8.890;2023-09-07T09:21:14;21.80;99.90
26304;DHT22;70693;48.680;8.890;2023-09-07T09:23:40;21.90;99.90
26304;DHT22;70693;48.680;8.890;2023-09-07T09:26:06;21.80;99.90
26304;DHT22;70693;48.680;8.890;2023-09-07T09:28:35;21.90;99.90
26304;DHT22;70693;48.680;8.890;2023-09-07T09:31:01;21.90;99.90
26304;DHT22;70693;48.680;8.890;2023-09-07T09:33:31;21.90;99.90
26304;DHT22;70693;48.680;8.890;2023-09-07T09:35:57;21.90;99.90
26304;DHT22;70693;48.680;8.890;2023-09-07T09:38:23;21.90;99.90
26304;DHT22;70693;48.680;8.890;2023-09-07T09:40:49;21.90;99.90
26304;DHT22;70693;48.680;8.890;2023-09-07T09:43:15;21.90;99.90
26304;DHT22;70693;48.680;8.890;2023-09-07T09:45:41;21.90;99.90
26304;DHT22;70693;48.680;8.890;2023-09-07T09:48:07;21.90;99.90
26304;DHT22;70693;48.680;8.890;2023-09-07T09:50:34;21.90;99.90
26304;DHT22;70693;48.680;8.890;2023-09-07T09:53:06;21.90;99.90
26304;DHT22;70693;48.680;8.890;2023-09-07T09:55:34;22.00;99.90
26304;DHT22;70693;48.680;8.890;2023-09-07T09:57:59;21.90;99.90
26304;DHT22;70693;48.680;8.890;2023-09-07T10:00:26;21.90;99.90
26304;DHT22;70693;48.680;8.890;2023-09-07T10:03:17;22.00;99.90
26304;DHT22;70693;48.680;8.890;2023-09-07T10:05:45;22.00;99.90
26304;DHT22;70693;48.680;8.890;2023-09-07T10:08:13;22.00;99.90
26304;DHT22;70693;48.680;8.890;2023-09-07T10:10:41;22.00;99.90
26304;DHT22;70693;48.680;8.890;2023-09-07T10:13:07;22.00;99.90
26304;DHT22;70693;48.680;8.890;2023-09-07T10:15:33;22.10;99.90
26304;DHT22;70693;48.680;8.890;2023-09-07T10:18:12;22.00;99.90
26304;DHT22;70693;48.680;8.890;2023-09-07T10:20:56;22.10;99.90
26304;DHT22;70693;48.680;8.890;2023-09-07T10:23:35;22.10;99.90
26304;DHT22;70693;48.680;8.890;2023-09-07T10:26:03;22.10;99.90
26304;DHT22;70693;48.680;8.890;2023-09-07T10:28:32;22.10;99.90
26304;DHT22;70693;48.680;8.890;2023-09-07T10:31:03;22.10;99.90
26304;DHT22;70693;48.680;8.890;2023-09-07T10:33:30;22.10;99.90
26304;DHT22;70693;48.680;8.890;2023-09-07T10:35:56;22.10;99.90
26304;DHT22;70693;48.680;8.890;2023-09-07T10:38:22;22.10;99.90
26304;DHT22;70693;48.680;8.890;2023-09-07T10:40:54;22.20;99.90
26304;DHT22;70693;48.680;8.890;2023-09-07T10:43:19;22.20;99.90
26304;DHT22;70693;48.680;8.890;2023-09-07T10:45:45;22.30;99.90
26304;DHT22;70693;48.680;8.890;2023-09-07T10:48:12;22.30;99.90
26304;DHT22;70693;48.680;8.890;2023-09-07T10:50:45;22.30;99.90
26304;DHT22;70693;48.680;8.890;2023-09-07T10:53:12;22.30;99.90
26304;DHT22;70693;48.680;8.890;2023-09-07T10:55:39;22.30;99.90
26304;DHT22;70693;48.680;8.890;2023-09-07T10:58:05;22.30;99.90
26304;DHT22;70693;48.680;8.890;2023-09-07T11:00:31;22.30;99.90
26304;DHT22;70693;48.680;8.890;2023-09-07T11:02:56;22.30;99.90
26304;DHT22;70693;48.680;8.890;2023-09-07T11:05:22;22.40;99.90
26304;DHT22;70693;48.680;8.890;2023-09-07T11:07:48;22.40;99.90
26304;DHT22;70693;48.680;8.890;2023-09-07T11:10:14;22.40;99.90
26304;DHT22;70693;48.680;8.890;2023-09-07T11:12:40;22.40;99.90
26304;DHT22;70693;48.680;8.890;2023-09-07T11:15:09;22.30;99.90
26304;DHT22;70693;48.680;8.890;2023-09-07T11:17:37;22.40;99.90
26304;DHT22;70693;48.680;8.890;2023-09-07T11:20:05;22.40;99.90
26304;DHT22;70693;48.680;8.890;2023-09-07T11:22:32;22.40;99.90
26304;DHT22;70693;48.680;8.890;2023-09-07T11:24:59;22.40;99.90
26304;DHT22;70693;48.680;8.890;2023-09-07T11:27:29;22.40;99.90
26304;DHT22;70693;48.680;8.890;2023-09-07T11:29:56;22.40;99.90
26304;DHT22;70693;48.680;8.890;2023-09-07T11:32:22;22.50;99.90
26304;DHT22;70693;48.680;8.890;2023-09-07T11:34:52;22.50;99.90
26304;DHT22;70693;48.680;8.890;2023-09-07T11:37:23;22.50;99.90
26304;DHT22;70693;48.680;8.890;2023-09-07T11:39:49;22.40;99.90
26304;DHT22;70693;48.680;8.890;2023-09-07T11:42:15;22.40;99.90
26304;DHT22;70693;48.680;8.890;2023-09-07T11:44:40;22.50;99.90
26304;DHT22;70693;48.680;8.890;2023-09-07T11:47:06;22.50;99.90
26304;DHT22;70693;48.680;8.890;2023-09-07T11:49:32;22.50;99.90
26304;DHT22;70693;48.680;8.890;2023-09-07T11:51:58;22.50;99.90
26304;DHT22;70693;48.680;8.890;2023-09-07T11:54:24;22.50;99.90
26304;DHT22;70693;48.680;8.890;2023-09-07T11:56:50;22.50;99.90
26304;DHT22;70693;48.680;8.890;2023-09-07T11:59:15;22.50;99.90
26304;DHT22;70693;48.680;8.890;2023-09-07T12:01:43;22.50;99.90
26304;DHT22;70693;48.680;8.890;2023-09-07T12:04:09;22.50;99.90
26304;DHT22;70693;48.680;8.890;2023-09-07T12:06:34;22.50;99.90
26304;DHT22;70693;48.680;8.890;2023-09-07T12:09:02;22.50;99.90
26304;DHT22;70693;48.680;8.890;2023-09-07T12:11:28;22.50;99.90
26304;DHT22;70693;48.680;8.890;2023-09-07T12:13:54;22.50;99.90
26304;DHT22;70693;48.680;8.890;2023-09-07T12:16:19;22.50;99.90
26304;DHT22;70693;48.680;8.890;2023-09-07T12:18:45;22.50;99.90
26304;DHT22;70693;48.680;8.890;2023-09-07T12:21:10;22.50;99.90
26304;DHT22;70693;48.680;8.890;2023-09-07T12:23:36;22.60;99.90
26304;DHT22;70693;48.680;8.890;2023-09-07T12:26:01;22.60;99.90
26304;DHT22;70693;48.680;8.890;2023-09-07T12:28:30;22.60;99.90
26304;DHT22;70693;48.680;8.890;2023-09-07T12:30:56;22.70;99.90
26304;DHT22;70693;48.680;8.890;2023-09-07T12:33:21;22.70;99.90
26304;DHT22;70693;48.680;8.890;2023-09-07T12:35:47;22.70;99.90
26304;DHT22;70693;48.680;8.890;2023-09-07T12:38:12;22.70;99.90
26304;DHT22;70693;48.680;8.890;2023-09-07T12:40:43;22.70;99.90
26304;DHT22;70693;48.680;8.890;2023-09-07T12:43:09;22.70;99.90
26304;DHT22;70693;48.680;8.890;2023-09-07T12:45:35;22.70;99.90
26304;DHT22;70693;48.680;8.890;2023-09-07T12:48:00;22.70;99.90
26304;DHT22;70693;48.680;8.890;2023-09-07T12:50:27;22.70;99.90
26304;DHT22;70693;48.680;8.890;2023-09-07T12:52:52;22.70;99.90
26304;DHT22;70693;48.680;8.890;2023-09-07T12:55:19;22.70;99.90
26304;DHT22;70693;48.680;8.890;2023-09-07T12:57:45;22.70;99.90
26304;DHT22;70693;48.680;8.890;2023-09-07T13:00:12;22.70;99.90
26304;DHT22;70693;48.680;8.890;2023-09-07T13:02:38;22.70;99.90
26304;DHT22;70693;48.680;8.890;2023-09-07T13:05:04;22.70;99.90
26304;DHT22;70693;48.680;8.890;2023-09-07T13:07:32;22.70;99.90
26304;DHT22;70693;48.680;8.890;2023-09-07T13:09:58;22.70;99.90
26304;DHT22;70693;48.680;8.890;2023-09-07T13:12:24;22.70;99.90
26304;DHT22;70693;48.680;8.890;2023-09-07T13:14:49;22.70;99.90
26304;DHT22;70693;48.680;8.890;2023-09-07T13:17:15;22.70;99.90
26304;DHT22;70693;48.680;8.890;2023-09-07T13:19:41;22.70;99.90
26304;DHT22;70693;48.680;8.890;2023-09-07T13:22:09;22.70;99.90
26304;DHT22;70693;48.680;8.890;2023-09-07T13:24:35;22.70;99.90
26304;DHT22;70693;48.680;8.890;2023-09-07T13:27:00;22.70;99.90
26304;DHT22;70693;48.680;8.890;2023-09-07T13:29:28;22.70;99.90
26304;DHT22;70693;48.680;8.890;2023-09-07T13:31:54;22.80;99.90
26304;DHT22;70693;48.680;8.890;2023-09-07T13:34:21;22.70;99.90
26304;DHT22;70693;48.680;8.890;2023-09-07T13:36:46;22.70;99.90
26304;DHT22;70693;48.680;8.890;2023-09-07T13:39:12;22.70;99.90
26304;DHT22;70693;48.680;8.890;2023-09-07T13:41:38;22.70;99.90
26304;DHT22;70693;48.680;8.890;2023-09-07T13:44:03;22.70;99.90
26304;DHT22;70693;48.680;8.890;2023-09-07T13:46:29;22.70;99.90
26304;DHT22;70693;48.680;8.890;2023-09-07T13:48:55;22.80;99.90
26304;DHT22;70693;48.680;8.890;2023-09-07T13:51:20;22.80;99.90
26304;DHT22;70693;48.680;8.890;2023-09-07T13:53:46;22.70;99.90
26304;DHT22;70693;48.680;8.890;2023-09-07T13:56:11;22.80;99.90
26304;DHT22;70693;48.680;8.890;2023-09-07T13:58:37;22.70;99.90
26304;DHT22;70693;48.680;8.890;2023-09-07T14:01:03;22.70;99.90
26304;DHT22;70693;48.680;8.890;2023-09-07T14:03:28;22.70;99.90
26304;DHT22;70693;48.680;8.890;2023-09-07T14:05:54;22.80;99.90
26304;DHT22;70693;48.680;8.890;2023-09-07T14:08:20;22.80;99.90
26304;DHT22;70693;48.680;8.890;2023-09-07T14:10:49;22.80;99.90
26304;DHT22;70693;48.680;8.890;2023-09-07T14:13:15;22.80;99.90
26304;DHT22;70693;48.680;8.890;2023-09-07T14:15:40;22.80;99.90
26304;DHT22;70693;48.680;8.890;2023-09-07T14:18:06;22.70;99.90
26304;DHT22;70693;48.680;8.890;2023-09-07T14:20:33;22.70;99.90
26304;DHT22;70693;48.680;8.890;2023-09-07T14:22:59;22.80;99.90
26304;DHT22;70693;48.680;8.890;2023-09-07T14:25:26;22.70;99.90
26304;DHT22;70693;48.680;8.890;2023-09-07T14:27:52;22.70;99.90
26304;DHT22;70693;48.680;8.890;2023-09-07T14:30:17;22.80;99.90
26304;DHT22;70693;48.680;8.890;2023-09-07T14:32:44;22.70;99.90
26304;DHT22;70693;48.680;8.890;2023-09-07T14:35:12;22.70;99.90
26304;DHT22;70693;48.680;8.890;2023-09-07T14:37:38;22.70;99.90
26304;DHT22;70693;48.680;8.890;2023-09-07T14:40:04;22.80;99.90
26304;DHT22;70693;48.680;8.890;2023-09-07T14:42:30;22.70;99.90
26304;DHT22;70693;48.680;8.890;2023-09-07T14:44:55;22.70;99.90
26304;DHT22;70693;48.680;8.890;2023-09-07T14:47:23;22.80;99.90
26304;DHT22;70693;48.680;8.890;2023-09-07T14:49:51;22.70;99.90
26304;DHT22;70693;48.680;8.890;2023-09-07T14:52:18;22.80;99.90
26304;DHT22;70693;48.680;8.890;2023-09-07T14:54:43;22.80;99.90
26304;DHT22;70693;48.680;8.890;2023-09-07T14:57:09;22.70;99.90
26304;DHT22;70693;48.680;8.890;2023-09-07T14:59:35;22.80;99.90
26304;DHT22;70693;48.680;8.890;2023-09-07T15:02:05;22.70;99.90
26304;DHT22;70693;48.680;8.890;2023-09-07T15:04:31;22.80;99.90
26304;DHT22;70693;48.680;8.890;2023-09-07T15:06:57;22.70;99.90
26304;DHT22;70693;48.680;8.890;2023-09-07T15:09:23;22.70;99.90
26304;DHT22;70693;48.680;8.890;2023-09-07T15:11:49;22.70;99.90
26304;DHT22;70693;48.680;8.890;2023-09-07T15:14:14;22.80;99.90
26304;DHT22;70693;48.680;8.890;2023-09-07T15:16:40;22.80;99.90
26304;DHT22;70693;48.680;8.890;2023-09-07T15:19:06;22.70;99.90
26304;DHT22;70693;48.680;8.890;2023-09-07T15:21:31;22.70;99.90
26304;DHT22;70693;48.680;8.890;2023-09-07T15:23:57;22.70;99.90
26304;DHT22;70693;48.680;8.890;2023-09-07T15:26:23;22.70;99.90